首页
METAR-TAF:

METAR-TAF

机场 :

Stillwater, 奧克拉荷馬州, 美国

纬度: 36-09-44N, 经度: 097-05-21W, 海拔: 300米

当前天气观测

该预报发布于32分钟前的06:53 UTC
风速6节,风向
温度 23°C
湿度 78%
气压 1013 hPa
能見度: 16.1公里
天空无云

METAR: KSWO 130653Z AUTO 17006KT 10SM CLR 23/19 A2992 RMK AO2 SLP116 T02330194

时间: 02:25 (07:25 UTC)

预报

该预报发布于2小时和5分钟前的05:20 UTC
预报有效从13日的 06点(UTC)到 14日的 06点(UTC)
风速8节,风向
能見度: 10公里
天空无云
从 13日的 1500点(UTC)
风速13节,风向南转西南,有时为20节阵风
能見度: 10公里
散云层高于15000英尺

TAF: KSWO 130520Z 1306/1406 18008KT P6SM SKC FM131500 21013G20KT P6SM SCT150

超过4000个机场的气象观测和天气预报(METAR&TAF报告)。

可查询的气象台以黄色和红色小点在地图上表示。

将鼠标移到小点上方,可查看气象台名称。

然后点击查看天气观测和预报。

如需切换地图:点击带黑十字的绿色按钮放大地图;点击带横线的绿色按钮缩小地图;或者点击绿色箭头查看邻近地区的地图。


METAR-TAF: